sensor_id;sensor_type;location;lat;lon;timestamp;P1;durP1;ratioP1;P2;durP2;ratioP2
1701;SDS011;848;48.354;10.064;2023-07-02T00:00:17;4.60;;;1.50;;
1701;SDS011;848;48.354;10.064;2023-07-02T00:02:44;5.93;;;1.75;;
1701;SDS011;848;48.354;10.064;2023-07-02T00:05:11;3.92;;;1.48;;
1701;SDS011;848;48.354;10.064;2023-07-02T00:07:37;4.13;;;1.88;;
1701;SDS011;848;48.354;10.064;2023-07-02T00:10:05;5.00;;;1.77;;
1701;SDS011;848;48.354;10.064;2023-07-02T00:12:33;4.93;;;1.88;;
1701;SDS011;848;48.354;10.064;2023-07-02T00:15:00;5.40;;;1.90;;
1701;SDS011;848;48.354;10.064;2023-07-02T00:17:27;5.00;;;1.73;;
1701;SDS011;848;48.354;10.064;2023-07-02T00:19:54;4.40;;;2.15;;
1701;SDS011;848;48.354;10.064;2023-07-02T00:22:21;3.85;;;1.40;;
1701;SDS011;848;48.354;10.064;2023-07-02T00:24:48;5.43;;;1.95;;
1701;SDS011;848;48.354;10.064;2023-07-02T00:27:16;5.68;;;2.10;;
1701;SDS011;848;48.354;10.064;2023-07-02T00:29:45;4.90;;;1.73;;
1701;SDS011;848;48.354;10.064;2023-07-02T00:32:12;5.25;;;1.67;;
1701;SDS011;848;48.354;10.064;2023-07-02T00:34:38;4.65;;;2.10;;
1701;SDS011;848;48.354;10.064;2023-07-02T00:37:05;6.53;;;2.20;;
1701;SDS011;848;48.354;10.064;2023-07-02T00:39:32;4.10;;;1.80;;
1701;SDS011;848;48.354;10.064;2023-07-02T00:42:02;4.50;;;1.92;;
1701;SDS011;848;48.354;10.064;2023-07-02T00:44:30;7.65;;;2.40;;
1701;SDS011;848;48.354;10.064;2023-07-02T00:46:58;7.10;;;1.75;;
1701;SDS011;848;48.354;10.064;2023-07-02T00:49:25;4.55;;;1.90;;
1701;SDS011;848;48.354;10.064;2023-07-02T00:51:52;6.15;;;1.90;;
1701;SDS011;848;48.354;10.064;2023-07-02T00:54:19;4.30;;;1.92;;
1701;SDS011;848;48.354;10.064;2023-07-02T00:56:45;4.40;;;1.75;;
1701;SDS011;848;48.354;10.064;2023-07-02T00:59:12;5.15;;;2.15;;
1701;SDS011;848;48.354;10.064;2023-07-02T01:01:39;5.20;;;2.20;;
1701;SDS011;848;48.354;10.064;2023-07-02T01:04:08;4.15;;;1.75;;
1701;SDS011;848;48.354;10.064;2023-07-02T01:06:37;7.47;;;2.80;;
1701;SDS011;848;48.354;10.064;2023-07-02T01:09:06;6.70;;;1.90;;
1701;SDS011;848;48.354;10.064;2023-07-02T01:11:34;13.90;;;2.75;;
1701;SDS011;848;48.354;10.064;2023-07-02T01:14:05;7.43;;;3.22;;
1701;SDS011;848;48.354;10.064;2023-07-02T01:16:34;7.43;;;2.80;;
1701;SDS011;848;48.354;10.064;2023-07-02T01:19:05;6.70;;;2.20;;
1701;SDS011;848;48.354;10.064;2023-07-02T01:21:38;9.85;;;2.40;;
1701;SDS011;848;48.354;10.064;2023-07-02T01:24:06;6.38;;;2.90;;
1701;SDS011;848;48.354;10.064;2023-07-02T01:26:33;6.25;;;2.58;;
1701;SDS011;848;48.354;10.064;2023-07-02T01:29:12;6.72;;;3.45;;
1701;SDS011;848;48.354;10.064;2023-07-02T01:31:40;5.90;;;3.03;;
1701;SDS011;848;48.354;10.064;2023-07-02T01:34:06;6.03;;;2.60;;
1701;SDS011;848;48.354;10.064;2023-07-02T01:36:34;7.50;;;2.72;;
1701;SDS011;848;48.354;10.064;2023-07-02T01:39:03;6.35;;;3.00;;
1701;SDS011;848;48.354;10.064;2023-07-02T01:41:32;6.30;;;3.22;;
1701;SDS011;848;48.354;10.064;2023-07-02T01:44:03;6.75;;;2.97;;
1701;SDS011;848;48.354;10.064;2023-07-02T01:46:30;5.60;;;3.22;;
1701;SDS011;848;48.354;10.064;2023-07-02T01:48:57;6.70;;;3.00;;
1701;SDS011;848;48.354;10.064;2023-07-02T01:51:24;6.10;;;3.00;;
1701;SDS011;848;48.354;10.064;2023-07-02T01:53:51;5.72;;;3.30;;
1701;SDS011;848;48.354;10.064;2023-07-02T01:56:19;6.75;;;3.50;;
1701;SDS011;848;48.354;10.064;2023-07-02T01:58:46;6.00;;;3.70;;
1701;SDS011;848;48.354;10.064;2023-07-02T02:01:13;6.07;;;3.10;;
1701;SDS011;848;48.354;10.064;2023-07-02T02:03:40;6.15;;;3.35;;
1701;SDS011;848;48.354;10.064;2023-07-02T02:06:07;6.35;;;3.30;;
1701;SDS011;848;48.354;10.064;2023-07-02T02:08:33;8.98;;;3.40;;
1701;SDS011;848;48.354;10.064;2023-07-02T02:11:00;5.20;;;3.20;;
1701;SDS011;848;48.354;10.064;2023-07-02T02:13:29;9.40;;;3.65;;
1701;SDS011;848;48.354;10.064;2023-07-02T02:15:55;7.78;;;3.40;;
1701;SDS011;848;48.354;10.064;2023-07-02T02:18:22;6.55;;;3.47;;
1701;SDS011;848;48.354;10.064;2023-07-02T02:20:49;6.55;;;3.30;;
1701;SDS011;848;48.354;10.064;2023-07-02T02:23:16;6.70;;;3.08;;
1701;SDS011;848;48.354;10.064;2023-07-02T02:25:43;6.18;;;3.65;;
1701;SDS011;848;48.354;10.064;2023-07-02T02:28:10;6.82;;;3.60;;
1701;SDS011;848;48.354;10.064;2023-07-02T02:30:38;8.80;;;4.00;;
1701;SDS011;848;48.354;10.064;2023-07-02T02:33:05;8.00;;;3.88;;
1701;SDS011;848;48.354;10.064;2023-07-02T02:35:32;5.55;;;3.10;;
1701;SDS011;848;48.354;10.064;2023-07-02T02:38:02;6.57;;;3.40;;
1701;SDS011;848;48.354;10.064;2023-07-02T02:40:29;5.60;;;3.42;;
1701;SDS011;848;48.354;10.064;2023-07-02T02:42:56;6.75;;;3.47;;
1701;SDS011;848;48.354;10.064;2023-07-02T02:45:23;6.03;;;3.60;;
1701;SDS011;848;48.354;10.064;2023-07-02T02:47:52;6.75;;;3.53;;
1701;SDS011;848;48.354;10.064;2023-07-02T02:50:19;5.65;;;3.47;;
1701;SDS011;848;48.354;10.064;2023-07-02T02:52:46;6.03;;;3.20;;
1701;SDS011;848;48.354;10.064;2023-07-02T02:55:13;6.25;;;3.25;;
1701;SDS011;848;48.354;10.064;2023-07-02T02:57:40;7.47;;;3.85;;
1701;SDS011;848;48.354;10.064;2023-07-02T03:00:08;9.52;;;3.75;;
1701;SDS011;848;48.354;10.064;2023-07-02T03:02:36;7.75;;;3.10;;
1701;SDS011;848;48.354;10.064;2023-07-02T03:05:05;7.95;;;3.65;;
1701;SDS011;848;48.354;10.064;2023-07-02T03:07:33;7.22;;;3.60;;
1701;SDS011;848;48.354;10.064;2023-07-02T03:10:00;6.50;;;3.75;;
1701;SDS011;848;48.354;10.064;2023-07-02T03:12:27;7.38;;;4.18;;
1701;SDS011;848;48.354;10.064;2023-07-02T03:14:54;8.00;;;4.00;;
1701;SDS011;848;48.354;10.064;2023-07-02T03:17:21;8.05;;;3.90;;
1701;SDS011;848;48.354;10.064;2023-07-02T03:19:48;7.47;;;4.20;;
1701;SDS011;848;48.354;10.064;2023-07-02T03:22:17;6.60;;;3.60;;
1701;SDS011;848;48.354;10.064;2023-07-02T03:24:43;7.85;;;3.70;;
1701;SDS011;848;48.354;10.064;2023-07-02T03:27:10;8.27;;;3.65;;
1701;SDS011;848;48.354;10.064;2023-07-02T03:29:38;5.80;;;3.45;;
1701;SDS011;848;48.354;10.064;2023-07-02T03:32:05;6.22;;;3.42;;
1701;SDS011;848;48.354;10.064;2023-07-02T03:34:32;6.50;;;3.08;;
1701;SDS011;848;48.354;10.064;2023-07-02T03:36:59;6.85;;;4.00;;
1701;SDS011;848;48.354;10.064;2023-07-02T03:39:27;7.97;;;3.83;;
1701;SDS011;848;48.354;10.064;2023-07-02T03:41:54;9.55;;;3.63;;
1701;SDS011;848;48.354;10.064;2023-07-02T03:44:21;6.80;;;4.35;;
1701;SDS011;848;48.354;10.064;2023-07-02T03:46:48;7.28;;;3.40;;
1701;SDS011;848;48.354;10.064;2023-07-02T03:49:15;7.60;;;3.42;;
1701;SDS011;848;48.354;10.064;2023-07-02T03:51:42;6.93;;;3.70;;
1701;SDS011;848;48.354;10.064;2023-07-02T03:54:08;6.43;;;3.30;;
1701;SDS011;848;48.354;10.064;2023-07-02T03:56:37;6.93;;;3.75;;
1701;SDS011;848;48.354;10.064;2023-07-02T03:59:04;7.07;;;4.10;;
1701;SDS011;848;48.354;10.064;2023-07-02T04:01:31;6.93;;;4.05;;
1701;SDS011;848;48.354;10.064;2023-07-02T04:03:58;6.30;;;3.53;;
1701;SDS011;848;48.354;10.064;2023-07-02T04:06:25;6.18;;;3.75;;
1701;SDS011;848;48.354;10.064;2023-07-02T04:08:51;6.88;;;4.28;;
1701;SDS011;848;48.354;10.064;2023-07-02T04:11:18;7.90;;;3.67;;
1701;SDS011;848;48.354;10.064;2023-07-02T04:13:47;6.32;;;3.40;;
1701;SDS011;848;48.354;10.064;2023-07-02T04:16:13;12.68;;;4.10;;
1701;SDS011;848;48.354;10.064;2023-07-02T04:18:40;7.05;;;3.90;;
1701;SDS011;848;48.354;10.064;2023-07-02T04:21:07;9.45;;;3.70;;
1701;SDS011;848;48.354;10.064;2023-07-02T04:23:34;6.28;;;3.63;;
1701;SDS011;848;48.354;10.064;2023-07-02T04:26:01;6.38;;;3.67;;
1701;SDS011;848;48.354;10.064;2023-07-02T04:28:28;6.35;;;3.95;;
1701;SDS011;848;48.354;10.064;2023-07-02T04:30:56;7.50;;;3.75;;
1701;SDS011;848;48.354;10.064;2023-07-02T04:33:23;7.72;;;3.92;;
1701;SDS011;848;48.354;10.064;2023-07-02T04:35:50;7.30;;;4.13;;
1701;SDS011;848;48.354;10.064;2023-07-02T04:38:16;7.38;;;4.10;;
1701;SDS011;848;48.354;10.064;2023-07-02T04:40:43;7.45;;;4.03;;
1701;SDS011;848;48.354;10.064;2023-07-02T04:43:10;8.57;;;3.88;;
1701;SDS011;848;48.354;10.064;2023-07-02T04:45:37;7.10;;;3.85;;
1701;SDS011;848;48.354;10.064;2023-07-02T04:48:06;9.13;;;4.35;;
1701;SDS011;848;48.354;10.064;2023-07-02T04:50:33;9.15;;;4.45;;
1701;SDS011;848;48.354;10.064;2023-07-02T04:52:59;9.35;;;4.38;;
1701;SDS011;848;48.354;10.064;2023-07-02T04:55:26;7.30;;;4.25;;
1701;SDS011;848;48.354;10.064;2023-07-02T04:57:53;7.88;;;4.63;;
1701;SDS011;848;48.354;10.064;2023-07-02T05:00:20;11.98;;;4.20;;
1701;SDS011;848;48.354;10.064;2023-07-02T05:02:48;8.95;;;4.65;;
1701;SDS011;848;48.354;10.064;2023-07-02T05:05:16;11.55;;;5.10;;
1701;SDS011;848;48.354;10.064;2023-07-02T05:07:43;7.78;;;3.95;;
1701;SDS011;848;48.354;10.064;2023-07-02T05:10:10;6.82;;;4.22;;
1701;SDS011;848;48.354;10.064;2023-07-02T05:12:39;7.60;;;4.10;;
1701;SDS011;848;48.354;10.064;2023-07-02T05:15:06;6.22;;;3.65;;
1701;SDS011;848;48.354;10.064;2023-07-02T05:17:33;8.50;;;3.80;;
1701;SDS011;848;48.354;10.064;2023-07-02T05:20:01;7.88;;;4.18;;
1701;SDS011;848;48.354;10.064;2023-07-02T05:22:30;6.85;;;4.00;;
1701;SDS011;848;48.354;10.064;2023-07-02T05:24:57;6.20;;;3.75;;
1701;SDS011;848;48.354;10.064;2023-07-02T05:27:24;8.63;;;3.50;;
1701;SDS011;848;48.354;10.064;2023-07-02T05:29:54;9.43;;;4.05;;
1701;SDS011;848;48.354;10.064;2023-07-02T05:32:21;8.10;;;3.55;;
1701;SDS011;848;48.354;10.064;2023-07-02T05:34:47;12.38;;;8.05;;
1701;SDS011;848;48.354;10.064;2023-07-02T05:37:14;7.82;;;4.13;;
1701;SDS011;848;48.354;10.064;2023-07-02T05:39:43;6.88;;;3.67;;
1701;SDS011;848;48.354;10.064;2023-07-02T05:42:09;7.38;;;4.50;;
1701;SDS011;848;48.354;10.064;2023-07-02T05:44:36;7.57;;;4.95;;
1701;SDS011;848;48.354;10.064;2023-07-02T05:47:03;6.28;;;3.38;;
1701;SDS011;848;48.354;10.064;2023-07-02T05:49:30;6.80;;;3.60;;
1701;SDS011;848;48.354;10.064;2023-07-02T05:51:57;8.00;;;3.60;;
1701;SDS011;848;48.354;10.064;2023-07-02T05:54:24;7.20;;;4.15;;
1701;SDS011;848;48.354;10.064;2023-07-02T05:56:52;5.95;;;2.90;;
1701;SDS011;848;48.354;10.064;2023-07-02T05:59:19;6.30;;;3.30;;
1701;SDS011;848;48.354;10.064;2023-07-02T06:01:46;5.53;;;2.80;;
1701;SDS011;848;48.354;10.064;2023-07-02T06:04:13;7.28;;;3.28;;
1701;SDS011;848;48.354;10.064;2023-07-02T06:06:39;8.02;;;3.55;;
1701;SDS011;848;48.354;10.064;2023-07-02T06:09:06;6.25;;;2.90;;
1701;SDS011;848;48.354;10.064;2023-07-02T06:11:33;7.90;;;2.95;;
1701;SDS011;848;48.354;10.064;2023-07-02T06:14:02;5.10;;;2.70;;
1701;SDS011;848;48.354;10.064;2023-07-02T06:16:29;5.57;;;2.75;;
1701;SDS011;848;48.354;10.064;2023-07-02T06:18:55;5.72;;;2.42;;
1701;SDS011;848;48.354;10.064;2023-07-02T06:21:22;5.10;;;2.30;;
1701;SDS011;848;48.354;10.064;2023-07-02T06:23:54;5.40;;;2.50;;
1701;SDS011;848;48.354;10.064;2023-07-02T06:26:21;4.80;;;2.15;;
1701;SDS011;848;48.354;10.064;2023-07-02T06:28:48;6.45;;;2.13;;
1701;SDS011;848;48.354;10.064;2023-07-02T06:31:16;5.18;;;2.22;;
1701;SDS011;848;48.354;10.064;2023-07-02T06:33:43;5.10;;;2.30;;
1701;SDS011;848;48.354;10.064;2023-07-02T06:36:10;5.78;;;2.63;;
1701;SDS011;848;48.354;10.064;2023-07-02T06:38:38;4.70;;;2.38;;
1701;SDS011;848;48.354;10.064;2023-07-02T06:41:05;5.18;;;2.30;;
1701;SDS011;848;48.354;10.064;2023-07-02T06:43:32;6.57;;;2.03;;
1701;SDS011;848;48.354;10.064;2023-07-02T06:45:59;6.78;;;1.90;;
1701;SDS011;848;48.354;10.064;2023-07-02T06:48:27;4.05;;;1.67;;
1701;SDS011;848;48.354;10.064;2023-07-02T06:50:55;4.03;;;1.80;;
1701;SDS011;848;48.354;10.064;2023-07-02T06:53:22;4.70;;;2.10;;
1701;SDS011;848;48.354;10.064;2023-07-02T06:55:49;5.45;;;2.60;;
1701;SDS011;848;48.354;10.064;2023-07-02T06:58:16;5.38;;;2.22;;
1701;SDS011;848;48.354;10.064;2023-07-02T07:00:43;4.35;;;2.00;;
1701;SDS011;848;48.354;10.064;2023-07-02T07:03:10;5.28;;;1.80;;
1701;SDS011;848;48.354;10.064;2023-07-02T07:05:38;5.38;;;1.85;;
1701;SDS011;848;48.354;10.064;2023-07-02T07:08:05;4.93;;;2.58;;
1701;SDS011;848;48.354;10.064;2023-07-02T07:10:32;4.30;;;2.08;;
1701;SDS011;848;48.354;10.064;2023-07-02T07:12:59;4.80;;;2.10;;
1701;SDS011;848;48.354;10.064;2023-07-02T07:15:29;4.60;;;2.20;;
1701;SDS011;848;48.354;10.064;2023-07-02T07:17:58;5.53;;;2.10;;
1701;SDS011;848;48.354;10.064;2023-07-02T07:20:25;4.75;;;1.95;;
1701;SDS011;848;48.354;10.064;2023-07-02T07:22:53;4.78;;;2.00;;
1701;SDS011;848;48.354;10.064;2023-07-02T07:25:20;5.20;;;2.35;;
1701;SDS011;848;48.354;10.064;2023-07-02T07:27:47;7.35;;;2.80;;
1701;SDS011;848;48.354;10.064;2023-07-02T07:30:14;6.55;;;2.80;;
1701;SDS011;848;48.354;10.064;2023-07-02T07:32:47;5.95;;;2.90;;
1701;SDS011;848;48.354;10.064;2023-07-02T07:35:14;7.40;;;3.50;;
1701;SDS011;848;48.354;10.064;2023-07-02T07:37:41;6.55;;;3.45;;
1701;SDS011;848;48.354;10.064;2023-07-02T07:40:10;9.57;;;4.40;;
1701;SDS011;848;48.354;10.064;2023-07-02T07:42:37;11.65;;;4.85;;
1701;SDS011;848;48.354;10.064;2023-07-02T07:45:05;9.82;;;4.70;;
1701;SDS011;848;48.354;10.064;2023-07-02T07:47:32;11.35;;;4.63;;
1701;SDS011;848;48.354;10.064;2023-07-02T07:49:59;8.90;;;4.40;;
1701;SDS011;848;48.354;10.064;2023-07-02T07:52:26;9.73;;;4.50;;
1701;SDS011;848;48.354;10.064;2023-07-02T07:54:53;10.23;;;4.60;;
1701;SDS011;848;48.354;10.064;2023-07-02T07:57:22;8.40;;;4.65;;
1701;SDS011;848;48.354;10.064;2023-07-02T07:59:48;8.27;;;5.00;;
1701;SDS011;848;48.354;10.064;2023-07-02T08:02:15;8.75;;;4.88;;
1701;SDS011;848;48.354;10.064;2023-07-02T08:04:42;9.82;;;5.00;;
1701;SDS011;848;48.354;10.064;2023-07-02T08:07:09;8.27;;;4.57;;
1701;SDS011;848;48.354;10.064;2023-07-02T08:09:36;9.80;;;4.97;;
1701;SDS011;848;48.354;10.064;2023-07-02T08:12:03;8.32;;;5.10;;
1701;SDS011;848;48.354;10.064;2023-07-02T08:14:31;8.68;;;4.90;;
1701;SDS011;848;48.354;10.064;2023-07-02T08:17:00;8.32;;;5.43;;
1701;SDS011;848;48.354;10.064;2023-07-02T08:19:27;10.43;;;5.70;;
1701;SDS011;848;48.354;10.064;2023-07-02T08:21:53;8.30;;;5.00;;
1701;SDS011;848;48.354;10.064;2023-07-02T08:24:20;9.50;;;4.80;;
1701;SDS011;848;48.354;10.064;2023-07-02T08:26:47;8.57;;;5.78;;
1701;SDS011;848;48.354;10.064;2023-07-02T08:29:14;9.50;;;5.25;;
1701;SDS011;848;48.354;10.064;2023-07-02T08:31:43;9.35;;;5.30;;
1701;SDS011;848;48.354;10.064;2023-07-02T08:34:10;8.60;;;5.35;;
1701;SDS011;848;48.354;10.064;2023-07-02T08:36:36;10.27;;;6.00;;
1701;SDS011;848;48.354;10.064;2023-07-02T08:39:04;12.75;;;5.75;;
1701;SDS011;848;48.354;10.064;2023-07-02T08:41:40;12.50;;;6.80;;
1701;SDS011;848;48.354;10.064;2023-07-02T08:44:08;11.02;;;6.78;;
1701;SDS011;848;48.354;10.064;2023-07-02T08:46:36;8.88;;;5.05;;
1701;SDS011;848;48.354;10.064;2023-07-02T08:49:05;9.77;;;6.30;;
1701;SDS011;848;48.354;10.064;2023-07-02T08:51:32;12.50;;;5.93;;
1701;SDS011;848;48.354;10.064;2023-07-02T08:53:59;10.98;;;7.10;;
1701;SDS011;848;48.354;10.064;2023-07-02T08:56:27;14.60;;;7.40;;
1701;SDS011;848;48.354;10.064;2023-07-02T08:58:53;13.82;;;7.32;;
1701;SDS011;848;48.354;10.064;2023-07-02T09:01:21;13.07;;;6.93;;
1701;SDS011;848;48.354;10.064;2023-07-02T09:03:48;13.20;;;7.47;;
1701;SDS011;848;48.354;10.064;2023-07-02T09:06:17;13.40;;;7.78;;
1701;SDS011;848;48.354;10.064;2023-07-02T09:08:45;11.27;;;6.38;;
1701;SDS011;848;48.354;10.064;2023-07-02T09:11:12;13.35;;;7.13;;
1701;SDS011;848;48.354;10.064;2023-07-02T09:13:43;11.52;;;7.03;;
1701;SDS011;848;48.354;10.064;2023-07-02T09:16:23;12.55;;;7.25;;
1701;SDS011;848;48.354;10.064;2023-07-02T09:18:55;12.02;;;7.18;;
1701;SDS011;848;48.354;10.064;2023-07-02T09:21:27;12.85;;;7.85;;
1701;SDS011;848;48.354;10.064;2023-07-02T09:23:54;17.17;;;8.07;;
1701;SDS011;848;48.354;10.064;2023-07-02T09:26:22;14.87;;;8.50;;
1701;SDS011;848;48.354;10.064;2023-07-02T09:28:49;12.63;;;7.55;;
1701;SDS011;848;48.354;10.064;2023-07-02T09:31:16;12.90;;;8.00;;
1701;SDS011;848;48.354;10.064;2023-07-02T09:33:43;15.13;;;9.10;;
1701;SDS011;848;48.354;10.064;2023-07-02T09:36:10;12.90;;;8.10;;
1701;SDS011;848;48.354;10.064;2023-07-02T09:38:40;12.75;;;8.18;;
1701;SDS011;848;48.354;10.064;2023-07-02T09:41:06;15.55;;;8.75;;
1701;SDS011;848;48.354;10.064;2023-07-02T09:43:34;13.98;;;8.00;;
1701;SDS011;848;48.354;10.064;2023-07-02T09:46:02;14.00;;;8.77;;
1701;SDS011;848;48.354;10.064;2023-07-02T09:48:30;15.55;;;8.70;;
1701;SDS011;848;48.354;10.064;2023-07-02T09:51:00;17.67;;;10.07;;
1701;SDS011;848;48.354;10.064;2023-07-02T09:53:29;13.70;;;8.13;;
1701;SDS011;848;48.354;10.064;2023-07-02T09:55:57;12.47;;;8.27;;
1701;SDS011;848;48.354;10.064;2023-07-02T09:58:25;15.15;;;10.32;;
1701;SDS011;848;48.354;10.064;2023-07-02T10:00:52;16.97;;;9.20;;
1701;SDS011;848;48.354;10.064;2023-07-02T10:03:27;15.45;;;8.80;;
1701;SDS011;848;48.354;10.064;2023-07-02T10:06:02;15.65;;;9.50;;
1701;SDS011;848;48.354;10.064;2023-07-02T10:08:30;14.00;;;8.70;;
1701;SDS011;848;48.354;10.064;2023-07-02T10:11:07;13.95;;;9.02;;
1701;SDS011;848;48.354;10.064;2023-07-02T10:13:35;17.17;;;9.20;;
1701;SDS011;848;48.354;10.064;2023-07-02T10:16:02;14.52;;;9.63;;
1701;SDS011;848;48.354;10.064;2023-07-02T10:18:29;15.05;;;9.75;;
1701;SDS011;848;48.354;10.064;2023-07-02T10:20:56;15.45;;;9.73;;
1701;SDS011;848;48.354;10.064;2023-07-02T10:23:32;16.23;;;9.70;;
1701;SDS011;848;48.354;10.064;2023-07-02T10:26:10;17.95;;;11.10;;
1701;SDS011;848;48.354;10.064;2023-07-02T10:28:40;19.00;;;10.13;;
1701;SDS011;848;48.354;10.064;2023-07-02T10:31:17;17.60;;;10.52;;
1701;SDS011;848;48.354;10.064;2023-07-02T10:33:45;15.13;;;8.65;;
1701;SDS011;848;48.354;10.064;2023-07-02T10:36:19;15.43;;;9.93;;
1701;SDS011;848;48.354;10.064;2023-07-02T10:38:47;16.80;;;10.20;;
1701;SDS011;848;48.354;10.064;2023-07-02T10:41:24;15.48;;;9.75;;
1701;SDS011;848;48.354;10.064;2023-07-02T10:43:51;18.83;;;10.55;;
1701;SDS011;848;48.354;10.064;2023-07-02T10:46:18;15.63;;;9.63;;
1701;SDS011;848;48.354;10.064;2023-07-02T10:48:54;16.15;;;10.40;;
1701;SDS011;848;48.354;10.064;2023-07-02T10:51:23;15.63;;;10.50;;
1701;SDS011;848;48.354;10.064;2023-07-02T10:53:58;17.60;;;11.30;;
1701;SDS011;848;48.354;10.064;2023-07-02T10:56:26;16.77;;;10.57;;
1701;SDS011;848;48.354;10.064;2023-07-02T10:58:54;16.92;;;12.05;;
1701;SDS011;848;48.354;10.064;2023-07-02T11:01:24;16.77;;;11.25;;
1701;SDS011;848;48.354;10.064;2023-07-02T11:03:58;19.98;;;12.45;;
1701;SDS011;848;48.354;10.064;2023-07-02T11:06:26;17.77;;;11.80;;
1701;SDS011;848;48.354;10.064;2023-07-02T11:08:54;18.75;;;10.90;;
1701;SDS011;848;48.354;10.064;2023-07-02T11:11:21;18.95;;;11.80;;
1701;SDS011;848;48.354;10.064;2023-07-02T11:13:51;21.00;;;12.35;;
1701;SDS011;848;48.354;10.064;2023-07-02T11:16:19;18.90;;;12.90;;
1701;SDS011;848;48.354;10.064;2023-07-02T11:18:49;21.75;;;12.02;;
1701;SDS011;848;48.354;10.064;2023-07-02T11:21:16;17.77;;;12.20;;
1701;SDS011;848;48.354;10.064;2023-07-02T11:23:43;20.48;;;13.07;;
1701;SDS011;848;48.354;10.064;2023-07-02T11:26:10;19.43;;;13.10;;
1701;SDS011;848;48.354;10.064;2023-07-02T11:28:46;22.70;;;12.20;;
1701;SDS011;848;48.354;10.064;2023-07-02T11:31:23;21.50;;;14.10;;
1701;SDS011;848;48.354;10.064;2023-07-02T11:33:51;19.63;;;13.70;;
1701;SDS011;848;48.354;10.064;2023-07-02T11:36:19;21.92;;;15.02;;
1701;SDS011;848;48.354;10.064;2023-07-02T11:38:48;22.63;;;13.98;;
1701;SDS011;848;48.354;10.064;2023-07-02T11:41:16;23.33;;;13.80;;
1701;SDS011;848;48.354;10.064;2023-07-02T11:43:44;21.20;;;15.48;;
1701;SDS011;848;48.354;10.064;2023-07-02T11:46:11;20.98;;;14.20;;
1701;SDS011;848;48.354;10.064;2023-07-02T11:48:39;23.43;;;14.20;;
1701;SDS011;848;48.354;10.064;2023-07-02T11:51:06;22.00;;;14.47;;
1701;SDS011;848;48.354;10.064;2023-07-02T11:53:32;24.23;;;16.00;;
1701;SDS011;848;48.354;10.064;2023-07-02T11:55:59;24.05;;;15.00;;
1701;SDS011;848;48.354;10.064;2023-07-02T11:58:26;22.17;;;15.77;;
1701;SDS011;848;48.354;10.064;2023-07-02T12:00:53;22.13;;;16.17;;
1701;SDS011;848;48.354;10.064;2023-07-02T12:03:20;25.40;;;17.33;;
1701;SDS011;848;48.354;10.064;2023-07-02T12:05:48;22.43;;;15.37;;
1701;SDS011;848;48.354;10.064;2023-07-02T12:08:16;25.07;;;17.20;;
1701;SDS011;848;48.354;10.064;2023-07-02T12:10:43;27.23;;;16.53;;
1701;SDS011;848;48.354;10.064;2023-07-02T12:13:09;27.33;;;16.07;;
1701;SDS011;848;48.354;10.064;2023-07-02T12:15:37;25.70;;;16.80;;
1701;SDS011;848;48.354;10.064;2023-07-02T12:18:03;23.90;;;16.80;;
1701;SDS011;848;48.354;10.064;2023-07-02T12:20:30;25.97;;;16.77;;
1701;SDS011;848;48.354;10.064;2023-07-02T12:22:58;26.48;;;19.05;;
1701;SDS011;848;48.354;10.064;2023-07-02T12:25:25;27.63;;;18.70;;
1701;SDS011;848;48.354;10.064;2023-07-02T12:27:52;26.63;;;17.80;;
1701;SDS011;848;48.354;10.064;2023-07-02T12:30:19;23.80;;;17.70;;
1701;SDS011;848;48.354;10.064;2023-07-02T12:32:46;24.50;;;18.07;;
1701;SDS011;848;48.354;10.064;2023-07-02T12:35:13;29.67;;;20.07;;
1701;SDS011;848;48.354;10.064;2023-07-02T12:37:43;28.53;;;18.63;;
1701;SDS011;848;48.354;10.064;2023-07-02T12:40:12;25.20;;;17.03;;
1701;SDS011;848;48.354;10.064;2023-07-02T12:42:40;26.40;;;18.30;;
1701;SDS011;848;48.354;10.064;2023-07-02T12:45:08;33.33;;;20.83;;
1701;SDS011;848;48.354;10.064;2023-07-02T12:47:36;28.20;;;19.43;;
1701;SDS011;848;48.354;10.064;2023-07-02T12:50:03;25.43;;;17.80;;
1701;SDS011;848;48.354;10.064;2023-07-02T12:52:30;27.20;;;19.43;;
1701;SDS011;848;48.354;10.064;2023-07-02T12:54:58;29.10;;;19.37;;
1701;SDS011;848;48.354;10.064;2023-07-02T12:57:26;25.80;;;18.63;;
1701;SDS011;848;48.354;10.064;2023-07-02T12:59:53;27.40;;;18.00;;
1701;SDS011;848;48.354;10.064;2023-07-02T13:02:21;30.53;;;20.27;;
1701;SDS011;848;48.354;10.064;2023-07-02T13:04:48;28.17;;;18.77;;
1701;SDS011;848;48.354;10.064;2023-07-02T13:07:15;24.90;;;18.00;;
1701;SDS011;848;48.354;10.064;2023-07-02T13:09:42;27.70;;;18.37;;
1701;SDS011;848;48.354;10.064;2023-07-02T13:12:10;27.07;;;18.30;;
1701;SDS011;848;48.354;10.064;2023-07-02T13:14:38;26.43;;;17.90;;
1701;SDS011;848;48.354;10.064;2023-07-02T13:17:05;24.87;;;17.87;;
1701;SDS011;848;48.354;10.064;2023-07-02T13:19:32;30.30;;;17.90;;
1701;SDS011;848;48.354;10.064;2023-07-02T13:22:00;27.53;;;17.83;;
1701;SDS011;848;48.354;10.064;2023-07-02T13:24:31;23.73;;;16.43;;
1701;SDS011;848;48.354;10.064;2023-07-02T13:27:00;21.90;;;15.60;;
1701;SDS011;848;48.354;10.064;2023-07-02T13:29:28;23.60;;;16.10;;
1701;SDS011;848;48.354;10.064;2023-07-02T13:31:57;23.10;;;15.20;;
1701;SDS011;848;48.354;10.064;2023-07-02T13:34:24;23.37;;;16.17;;
1701;SDS011;848;48.354;10.064;2023-07-02T13:36:51;27.37;;;17.33;;
1701;SDS011;848;48.354;10.064;2023-07-02T13:39:18;27.30;;;17.17;;
1701;SDS011;848;48.354;10.064;2023-07-02T13:41:45;22.70;;;15.67;;
1701;SDS011;848;48.354;10.064;2023-07-02T13:44:13;21.93;;;15.53;;
1701;SDS011;848;48.354;10.064;2023-07-02T13:46:41;24.53;;;15.40;;
1701;SDS011;848;48.354;10.064;2023-07-02T13:49:10;25.83;;;15.70;;
1701;SDS011;848;48.354;10.064;2023-07-02T13:51:37;22.27;;;15.07;;
1701;SDS011;848;48.354;10.064;2023-07-02T13:54:04;22.50;;;14.90;;
1701;SDS011;848;48.354;10.064;2023-07-02T13:56:31;22.37;;;16.27;;
1701;SDS011;848;48.354;10.064;2023-07-02T13:59:00;19.80;;;12.90;;
1701;SDS011;848;48.354;10.064;2023-07-02T14:01:28;20.77;;;14.07;;
1701;SDS011;848;48.354;10.064;2023-07-02T14:03:55;22.57;;;12.87;;
1701;SDS011;848;48.354;10.064;2023-07-02T14:06:22;18.90;;;13.50;;
1701;SDS011;848;48.354;10.064;2023-07-02T14:08:50;21.20;;;13.87;;
1701;SDS011;848;48.354;10.064;2023-07-02T14:11:17;19.40;;;14.23;;
1701;SDS011;848;48.354;10.064;2023-07-02T14:13:44;21.13;;;12.60;;
1701;SDS011;848;48.354;10.064;2023-07-02T14:16:13;18.40;;;12.50;;
1701;SDS011;848;48.354;10.064;2023-07-02T14:18:40;20.60;;;13.00;;
1701;SDS011;848;48.354;10.064;2023-07-02T14:21:07;18.87;;;13.23;;
1701;SDS011;848;48.354;10.064;2023-07-02T14:23:34;19.77;;;12.10;;
1701;SDS011;848;48.354;10.064;2023-07-02T14:26:00;23.33;;;13.40;;
1701;SDS011;848;48.354;10.064;2023-07-02T14:28:27;19.50;;;13.43;;
1701;SDS011;848;48.354;10.064;2023-07-02T14:30:57;19.50;;;12.60;;
1701;SDS011;848;48.354;10.064;2023-07-02T14:33:27;21.77;;;14.03;;
1701;SDS011;848;48.354;10.064;2023-07-02T14:35:55;21.70;;;14.37;;
1701;SDS011;848;48.354;10.064;2023-07-02T14:38:22;21.90;;;14.00;;
1701;SDS011;848;48.354;10.064;2023-07-02T14:40:49;24.53;;;16.37;;
1701;SDS011;848;48.354;10.064;2023-07-02T14:43:17;26.03;;;16.70;;
1701;SDS011;848;48.354;10.064;2023-07-02T14:45:46;24.90;;;16.90;;
1701;SDS011;848;48.354;10.064;2023-07-02T14:48:14;23.20;;;15.30;;
1701;SDS011;848;48.354;10.064;2023-07-02T14:50:43;25.37;;;16.07;;
1701;SDS011;848;48.354;10.064;2023-07-02T14:53:11;24.47;;;16.60;;
1701;SDS011;848;48.354;10.064;2023-07-02T14:55:38;24.67;;;17.77;;
1701;SDS011;848;48.354;10.064;2023-07-02T14:58:05;26.20;;;16.80;;
1701;SDS011;848;48.354;10.064;2023-07-02T15:00:32;25.43;;;16.60;;
1701;SDS011;848;48.354;10.064;2023-07-02T15:03:00;27.23;;;16.03;;
1701;SDS011;848;48.354;10.064;2023-07-02T15:05:27;23.87;;;15.50;;
1701;SDS011;848;48.354;10.064;2023-07-02T15:07:56;23.53;;;14.67;;